sensor_id;sensor_type;location;lat;lon;timestamp;P1;durP1;ratioP1;P2;durP2;ratioP2
73266;SDS011;61495;53.400;7.608;2024-01-27T00:01:39;11.68;;;2.05;;
73266;SDS011;61495;53.400;7.608;2024-01-27T00:04:04;14.00;;;2.33;;
73266;SDS011;61495;53.400;7.608;2024-01-27T00:06:30;14.95;;;2.28;;
73266;SDS011;61495;53.400;7.608;2024-01-27T00:08:55;15.40;;;2.80;;
73266;SDS011;61495;53.400;7.608;2024-01-27T00:11:20;9.40;;;2.17;;
73266;SDS011;61495;53.400;7.608;2024-01-27T00:13:48;10.75;;;2.05;;
73266;SDS011;61495;53.400;7.608;2024-01-27T00:16:13;11.38;;;2.28;;
73266;SDS011;61495;53.400;7.608;2024-01-27T00:18:39;14.82;;;2.25;;
73266;SDS011;61495;53.400;7.608;2024-01-27T00:21:05;9.90;;;2.00;;
73266;SDS011;61495;53.400;7.608;2024-01-27T00:23:36;8.52;;;2.38;;
73266;SDS011;61495;53.400;7.608;2024-01-27T00:26:01;9.80;;;1.83;;
73266;SDS011;61495;53.400;7.608;2024-01-27T00:28:27;18.88;;;2.85;;
73266;SDS011;61495;53.400;7.608;2024-01-27T00:30:52;10.85;;;2.28;;
73266;SDS011;61495;53.400;7.608;2024-01-27T00:33:18;10.80;;;2.15;;
73266;SDS011;61495;53.400;7.608;2024-01-27T00:35:44;13.32;;;2.20;;
73266;SDS011;61495;53.400;7.608;2024-01-27T00:38:09;11.63;;;1.67;;
73266;SDS011;61495;53.400;7.608;2024-01-27T00:40:35;7.00;;;2.05;;
73266;SDS011;61495;53.400;7.608;2024-01-27T00:43:03;15.70;;;2.50;;
73266;SDS011;61495;53.400;7.608;2024-01-27T00:45:29;8.00;;;1.70;;
73266;SDS011;61495;53.400;7.608;2024-01-27T00:47:55;10.15;;;1.30;;
73266;SDS011;61495;53.400;7.608;2024-01-27T00:50:21;10.95;;;2.55;;
73266;SDS011;61495;53.400;7.608;2024-01-27T00:52:47;15.38;;;2.30;;
73266;SDS011;61495;53.400;7.608;2024-01-27T00:55:13;14.65;;;2.50;;
73266;SDS011;61495;53.400;7.608;2024-01-27T00:57:39;10.45;;;2.35;;
73266;SDS011;61495;53.400;7.608;2024-01-27T01:00:05;13.45;;;2.78;;
73266;SDS011;61495;53.400;7.608;2024-01-27T01:02:34;18.30;;;2.80;;
73266;SDS011;61495;53.400;7.608;2024-01-27T01:04:59;9.18;;;2.20;;
73266;SDS011;61495;53.400;7.608;2024-01-27T01:07:25;7.20;;;1.70;;
73266;SDS011;61495;53.400;7.608;2024-01-27T01:09:50;12.77;;;2.47;;
73266;SDS011;61495;53.400;7.608;2024-01-27T01:12:16;11.68;;;2.05;;
73266;SDS011;61495;53.400;7.608;2024-01-27T01:14:42;11.40;;;2.22;;
73266;SDS011;61495;53.400;7.608;2024-01-27T01:17:08;11.52;;;2.65;;
73266;SDS011;61495;53.400;7.608;2024-01-27T01:19:33;11.02;;;1.73;;
73266;SDS011;61495;53.400;7.608;2024-01-27T01:21:59;9.40;;;2.25;;
73266;SDS011;61495;53.400;7.608;2024-01-27T01:24:24;11.07;;;1.75;;
73266;SDS011;61495;53.400;7.608;2024-01-27T01:26:49;8.27;;;2.20;;
73266;SDS011;61495;53.400;7.608;2024-01-27T01:29:15;15.30;;;2.23;;
73266;SDS011;61495;53.400;7.608;2024-01-27T01:31:41;10.77;;;1.92;;
73266;SDS011;61495;53.400;7.608;2024-01-27T01:34:07;9.20;;;1.60;;
73266;SDS011;61495;53.400;7.608;2024-01-27T01:36:33;15.75;;;2.03;;
73266;SDS011;61495;53.400;7.608;2024-01-27T01:38:58;11.68;;;2.13;;
73266;SDS011;61495;53.400;7.608;2024-01-27T01:41:24;10.55;;;2.22;;
73266;SDS011;61495;53.400;7.608;2024-01-27T01:43:50;8.38;;;1.67;;
73266;SDS011;61495;53.400;7.608;2024-01-27T01:46:15;12.00;;;2.50;;
73266;SDS011;61495;53.400;7.608;2024-01-27T01:48:40;7.80;;;2.58;;
73266;SDS011;61495;53.400;7.608;2024-01-27T01:51:06;16.00;;;2.20;;
73266;SDS011;61495;53.400;7.608;2024-01-27T01:53:32;9.30;;;1.83;;
73266;SDS011;61495;53.400;7.608;2024-01-27T01:55:57;13.90;;;3.70;;
73266;SDS011;61495;53.400;7.608;2024-01-27T01:58:23;10.23;;;2.03;;
73266;SDS011;61495;53.400;7.608;2024-01-27T02:00:48;12.30;;;2.53;;
73266;SDS011;61495;53.400;7.608;2024-01-27T02:03:14;5.97;;;1.67;;
73266;SDS011;61495;53.400;7.608;2024-01-27T02:05:40;12.63;;;2.15;;
73266;SDS011;61495;53.400;7.608;2024-01-27T02:08:05;13.93;;;1.92;;
73266;SDS011;61495;53.400;7.608;2024-01-27T02:10:31;14.75;;;1.80;;
73266;SDS011;61495;53.400;7.608;2024-01-27T02:13:14;15.75;;;2.45;;
73266;SDS011;61495;53.400;7.608;2024-01-27T02:15:42;11.73;;;1.95;;
73266;SDS011;61495;53.400;7.608;2024-01-27T02:18:08;13.15;;;1.73;;
73266;SDS011;61495;53.400;7.608;2024-01-27T02:20:33;9.97;;;1.80;;
73266;SDS011;61495;53.400;7.608;2024-01-27T02:22:58;9.30;;;2.00;;
73266;SDS011;61495;53.400;7.608;2024-01-27T02:25:24;9.25;;;2.28;;
73266;SDS011;61495;53.400;7.608;2024-01-27T02:27:49;13.82;;;2.38;;
73266;SDS011;61495;53.400;7.608;2024-01-27T02:30:14;18.30;;;2.72;;
73266;SDS011;61495;53.400;7.608;2024-01-27T02:32:40;11.43;;;1.95;;
73266;SDS011;61495;53.400;7.608;2024-01-27T02:35:05;10.98;;;2.45;;
73266;SDS011;61495;53.400;7.608;2024-01-27T02:37:32;14.90;;;2.72;;
73266;SDS011;61495;53.400;7.608;2024-01-27T02:39:58;18.23;;;2.15;;
73266;SDS011;61495;53.400;7.608;2024-01-27T02:42:23;11.48;;;2.17;;
73266;SDS011;61495;53.400;7.608;2024-01-27T02:44:48;10.73;;;1.33;;
73266;SDS011;61495;53.400;7.608;2024-01-27T02:47:14;10.80;;;2.20;;
73266;SDS011;61495;53.400;7.608;2024-01-27T02:49:39;12.02;;;2.75;;
73266;SDS011;61495;53.400;7.608;2024-01-27T02:52:04;10.93;;;2.57;;
73266;SDS011;61495;53.400;7.608;2024-01-27T02:54:30;9.88;;;2.30;;
73266;SDS011;61495;53.400;7.608;2024-01-27T02:56:55;9.40;;;1.95;;
73266;SDS011;61495;53.400;7.608;2024-01-27T02:59:21;12.18;;;1.67;;
73266;SDS011;61495;53.400;7.608;2024-01-27T03:01:46;13.85;;;2.30;;
73266;SDS011;61495;53.400;7.608;2024-01-27T03:04:12;11.52;;;2.95;;
73266;SDS011;61495;53.400;7.608;2024-01-27T03:06:38;7.70;;;1.83;;
73266;SDS011;61495;53.400;7.608;2024-01-27T03:09:03;13.27;;;2.08;;
73266;SDS011;61495;53.400;7.608;2024-01-27T03:11:29;11.55;;;2.40;;
73266;SDS011;61495;53.400;7.608;2024-01-27T03:13:54;10.67;;;1.70;;
73266;SDS011;61495;53.400;7.608;2024-01-27T03:16:19;8.05;;;1.70;;
73266;SDS011;61495;53.400;7.608;2024-01-27T03:18:45;8.85;;;2.42;;
73266;SDS011;61495;53.400;7.608;2024-01-27T03:21:10;9.65;;;2.25;;
73266;SDS011;61495;53.400;7.608;2024-01-27T03:23:35;6.37;;;2.13;;
73266;SDS011;61495;53.400;7.608;2024-01-27T03:26:01;16.20;;;2.33;;
73266;SDS011;61495;53.400;7.608;2024-01-27T03:28:27;11.27;;;1.75;;
73266;SDS011;61495;53.400;7.608;2024-01-27T03:30:53;14.88;;;2.67;;
73266;SDS011;61495;53.400;7.608;2024-01-27T03:33:18;8.23;;;2.10;;
73266;SDS011;61495;53.400;7.608;2024-01-27T03:35:43;6.35;;;1.73;;
73266;SDS011;61495;53.400;7.608;2024-01-27T03:38:09;13.63;;;2.10;;
73266;SDS011;61495;53.400;7.608;2024-01-27T03:40:34;12.20;;;1.95;;
73266;SDS011;61495;53.400;7.608;2024-01-27T03:42:59;7.95;;;1.63;;
73266;SDS011;61495;53.400;7.608;2024-01-27T03:45:25;8.40;;;1.60;;
73266;SDS011;61495;53.400;7.608;2024-01-27T03:47:50;10.55;;;1.75;;
73266;SDS011;61495;53.400;7.608;2024-01-27T03:50:15;8.57;;;1.83;;
73266;SDS011;61495;53.400;7.608;2024-01-27T03:52:41;10.98;;;1.92;;
73266;SDS011;61495;53.400;7.608;2024-01-27T03:55:07;9.68;;;2.13;;
73266;SDS011;61495;53.400;7.608;2024-01-27T03:57:32;11.10;;;2.15;;
73266;SDS011;61495;53.400;7.608;2024-01-27T03:59:57;8.90;;;2.08;;
73266;SDS011;61495;53.400;7.608;2024-01-27T04:02:23;12.75;;;2.17;;
73266;SDS011;61495;53.400;7.608;2024-01-27T04:04:48;12.98;;;2.05;;
73266;SDS011;61495;53.400;7.608;2024-01-27T04:07:13;9.97;;;2.00;;
73266;SDS011;61495;53.400;7.608;2024-01-27T04:09:39;7.47;;;2.15;;
73266;SDS011;61495;53.400;7.608;2024-01-27T04:12:04;9.63;;;1.98;;
73266;SDS011;61495;53.400;7.608;2024-01-27T04:14:30;7.68;;;2.03;;
73266;SDS011;61495;53.400;7.608;2024-01-27T04:16:55;9.57;;;2.22;;
73266;SDS011;61495;53.400;7.608;2024-01-27T04:19:20;9.07;;;1.60;;
73266;SDS011;61495;53.400;7.608;2024-01-27T04:21:46;6.28;;;1.60;;
73266;SDS011;61495;53.400;7.608;2024-01-27T04:24:11;5.55;;;1.60;;
73266;SDS011;61495;53.400;7.608;2024-01-27T04:26:37;9.85;;;2.28;;
73266;SDS011;61495;53.400;7.608;2024-01-27T04:29:02;8.77;;;1.90;;
73266;SDS011;61495;53.400;7.608;2024-01-27T04:31:27;9.32;;;1.75;;
73266;SDS011;61495;53.400;7.608;2024-01-27T04:33:53;14.93;;;3.33;;
73266;SDS011;61495;53.400;7.608;2024-01-27T04:36:27;13.50;;;2.50;;
73266;SDS011;61495;53.400;7.608;2024-01-27T04:38:56;13.15;;;2.10;;
73266;SDS011;61495;53.400;7.608;2024-01-27T04:41:22;14.75;;;1.83;;
73266;SDS011;61495;53.400;7.608;2024-01-27T04:43:47;10.38;;;2.58;;
73266;SDS011;61495;53.400;7.608;2024-01-27T04:46:13;12.60;;;2.03;;
73266;SDS011;61495;53.400;7.608;2024-01-27T04:48:38;10.48;;;1.75;;
73266;SDS011;61495;53.400;7.608;2024-01-27T04:51:03;6.65;;;1.85;;
73266;SDS011;61495;53.400;7.608;2024-01-27T04:53:29;8.88;;;1.75;;
73266;SDS011;61495;53.400;7.608;2024-01-27T04:55:54;7.47;;;1.95;;
73266;SDS011;61495;53.400;7.608;2024-01-27T04:58:20;10.82;;;2.28;;
73266;SDS011;61495;53.400;7.608;2024-01-27T05:00:46;11.73;;;2.08;;
73266;SDS011;61495;53.400;7.608;2024-01-27T05:03:12;11.35;;;1.63;;
73266;SDS011;61495;53.400;7.608;2024-01-27T05:05:42;9.35;;;1.80;;
73266;SDS011;61495;53.400;7.608;2024-01-27T05:08:08;10.02;;;2.03;;
73266;SDS011;61495;53.400;7.608;2024-01-27T05:10:37;12.65;;;2.17;;
73266;SDS011;61495;53.400;7.608;2024-01-27T05:13:02;7.75;;;2.42;;
73266;SDS011;61495;53.400;7.608;2024-01-27T05:15:28;7.93;;;2.10;;
73266;SDS011;61495;53.400;7.608;2024-01-27T05:17:53;7.95;;;1.60;;
73266;SDS011;61495;53.400;7.608;2024-01-27T05:20:19;7.15;;;1.65;;
73266;SDS011;61495;53.400;7.608;2024-01-27T05:22:44;8.95;;;2.05;;
73266;SDS011;61495;53.400;7.608;2024-01-27T05:25:11;11.40;;;2.10;;
73266;SDS011;61495;53.400;7.608;2024-01-27T05:27:37;15.77;;;2.08;;
73266;SDS011;61495;53.400;7.608;2024-01-27T05:30:06;9.55;;;2.30;;
73266;SDS011;61495;53.400;7.608;2024-01-27T05:32:32;7.13;;;1.35;;
73266;SDS011;61495;53.400;7.608;2024-01-27T05:34:58;10.07;;;2.35;;
73266;SDS011;61495;53.400;7.608;2024-01-27T05:37:23;7.35;;;1.55;;
73266;SDS011;61495;53.400;7.608;2024-01-27T05:39:49;7.80;;;1.58;;
73266;SDS011;61495;53.400;7.608;2024-01-27T05:42:14;14.07;;;2.05;;
73266;SDS011;61495;53.400;7.608;2024-01-27T05:44:40;12.10;;;1.88;;
73266;SDS011;61495;53.400;7.608;2024-01-27T05:47:06;6.40;;;1.58;;
73266;SDS011;61495;53.400;7.608;2024-01-27T05:49:32;10.70;;;2.45;;
73266;SDS011;61495;53.400;7.608;2024-01-27T05:51:57;6.85;;;2.42;;
73266;SDS011;61495;53.400;7.608;2024-01-27T05:54:23;7.45;;;2.13;;
73266;SDS011;61495;53.400;7.608;2024-01-27T05:56:49;7.15;;;2.58;;
73266;SDS011;61495;53.400;7.608;2024-01-27T05:59:14;11.13;;;1.95;;
73266;SDS011;61495;53.400;7.608;2024-01-27T06:01:40;11.88;;;1.83;;
73266;SDS011;61495;53.400;7.608;2024-01-27T06:04:06;7.75;;;1.88;;
73266;SDS011;61495;53.400;7.608;2024-01-27T06:06:31;6.93;;;1.60;;
73266;SDS011;61495;53.400;7.608;2024-01-27T06:08:57;7.85;;;1.70;;
73266;SDS011;61495;53.400;7.608;2024-01-27T06:11:23;7.70;;;1.40;;
73266;SDS011;61495;53.400;7.608;2024-01-27T06:13:49;9.43;;;1.70;;
73266;SDS011;61495;53.400;7.608;2024-01-27T06:16:15;8.93;;;1.88;;
73266;SDS011;61495;53.400;7.608;2024-01-27T06:18:43;9.43;;;2.00;;
73266;SDS011;61495;53.400;7.608;2024-01-27T06:21:09;10.48;;;1.70;;
73266;SDS011;61495;53.400;7.608;2024-01-27T06:23:35;10.45;;;2.28;;
73266;SDS011;61495;53.400;7.608;2024-01-27T06:26:05;6.57;;;1.58;;
73266;SDS011;61495;53.400;7.608;2024-01-27T06:28:31;9.93;;;1.50;;
73266;SDS011;61495;53.400;7.608;2024-01-27T06:30:56;7.10;;;1.52;;
73266;SDS011;61495;53.400;7.608;2024-01-27T06:33:23;7.93;;;2.17;;
73266;SDS011;61495;53.400;7.608;2024-01-27T06:35:48;5.28;;;1.60;;
73266;SDS011;61495;53.400;7.608;2024-01-27T06:38:13;6.85;;;1.73;;
73266;SDS011;61495;53.400;7.608;2024-01-27T06:40:39;11.75;;;1.48;;
73266;SDS011;61495;53.400;7.608;2024-01-27T06:43:04;10.18;;;2.00;;
73266;SDS011;61495;53.400;7.608;2024-01-27T06:45:30;7.82;;;1.95;;
73266;SDS011;61495;53.400;7.608;2024-01-27T06:47:55;8.52;;;1.85;;
73266;SDS011;61495;53.400;7.608;2024-01-27T06:50:21;7.90;;;1.42;;
73266;SDS011;61495;53.400;7.608;2024-01-27T06:52:48;9.55;;;1.58;;
73266;SDS011;61495;53.400;7.608;2024-01-27T06:55:13;9.32;;;1.83;;
73266;SDS011;61495;53.400;7.608;2024-01-27T06:57:38;10.75;;;2.95;;
73266;SDS011;61495;53.400;7.608;2024-01-27T07:00:06;6.55;;;1.30;;
73266;SDS011;61495;53.400;7.608;2024-01-27T07:02:32;14.20;;;3.28;;
73266;SDS011;61495;53.400;7.608;2024-01-27T07:04:57;9.27;;;1.70;;
73266;SDS011;61495;53.400;7.608;2024-01-27T07:07:26;13.20;;;2.63;;
73266;SDS011;61495;53.400;7.608;2024-01-27T07:09:54;4.18;;;1.42;;
73266;SDS011;61495;53.400;7.608;2024-01-27T07:12:20;8.80;;;1.48;;
73266;SDS011;61495;53.400;7.608;2024-01-27T07:14:46;9.23;;;1.50;;
73266;SDS011;61495;53.400;7.608;2024-01-27T07:17:11;8.35;;;1.48;;
73266;SDS011;61495;53.400;7.608;2024-01-27T07:19:38;8.43;;;2.28;;
73266;SDS011;61495;53.400;7.608;2024-01-27T07:22:12;7.95;;;1.63;;
73266;SDS011;61495;53.400;7.608;2024-01-27T07:24:38;8.60;;;1.95;;
73266;SDS011;61495;53.400;7.608;2024-01-27T07:27:04;8.88;;;1.70;;
73266;SDS011;61495;53.400;7.608;2024-01-27T07:29:29;12.65;;;2.13;;
73266;SDS011;61495;53.400;7.608;2024-01-27T07:31:55;8.90;;;1.80;;
73266;SDS011;61495;53.400;7.608;2024-01-27T07:34:20;6.35;;;1.50;;
73266;SDS011;61495;53.400;7.608;2024-01-27T07:36:46;8.05;;;1.55;;
73266;SDS011;61495;53.400;7.608;2024-01-27T07:39:13;9.45;;;2.53;;
73266;SDS011;61495;53.400;7.608;2024-01-27T07:41:38;9.20;;;1.80;;
73266;SDS011;61495;53.400;7.608;2024-01-27T07:44:07;7.15;;;1.52;;
73266;SDS011;61495;53.400;7.608;2024-01-27T07:46:40;6.82;;;1.55;;
73266;SDS011;61495;53.400;7.608;2024-01-27T07:49:06;11.85;;;2.00;;
73266;SDS011;61495;53.400;7.608;2024-01-27T07:51:33;8.27;;;1.40;;
73266;SDS011;61495;53.400;7.608;2024-01-27T07:53:59;6.15;;;1.40;;
73266;SDS011;61495;53.400;7.608;2024-01-27T07:56:25;7.55;;;1.50;;
73266;SDS011;61495;53.400;7.608;2024-01-27T07:58:50;9.13;;;1.50;;
73266;SDS011;61495;53.400;7.608;2024-01-27T08:01:16;7.30;;;1.77;;
73266;SDS011;61495;53.400;7.608;2024-01-27T08:03:42;7.75;;;1.52;;
73266;SDS011;61495;53.400;7.608;2024-01-27T08:06:10;5.47;;;1.20;;
73266;SDS011;61495;53.400;7.608;2024-01-27T08:08:43;8.80;;;1.77;;
73266;SDS011;61495;53.400;7.608;2024-01-27T08:11:15;13.38;;;2.22;;
73266;SDS011;61495;53.400;7.608;2024-01-27T08:13:41;7.72;;;1.60;;
73266;SDS011;61495;53.400;7.608;2024-01-27T08:16:07;8.52;;;1.45;;
73266;SDS011;61495;53.400;7.608;2024-01-27T08:18:35;8.35;;;2.08;;
73266;SDS011;61495;53.400;7.608;2024-01-27T08:21:02;7.53;;;1.60;;
73266;SDS011;61495;53.400;7.608;2024-01-27T08:23:28;11.77;;;1.95;;
73266;SDS011;61495;53.400;7.608;2024-01-27T08:25:53;14.25;;;1.65;;
73266;SDS011;61495;53.400;7.608;2024-01-27T08:28:19;5.53;;;1.73;;
73266;SDS011;61495;53.400;7.608;2024-01-27T08:30:44;6.67;;;1.63;;
73266;SDS011;61495;53.400;7.608;2024-01-27T08:33:10;12.95;;;2.03;;
73266;SDS011;61495;53.400;7.608;2024-01-27T08:35:35;7.40;;;2.03;;
73266;SDS011;61495;53.400;7.608;2024-01-27T08:38:00;13.10;;;1.95;;
73266;SDS011;61495;53.400;7.608;2024-01-27T08:40:26;9.25;;;2.40;;
73266;SDS011;61495;53.400;7.608;2024-01-27T08:42:51;13.18;;;3.08;;
73266;SDS011;61495;53.400;7.608;2024-01-27T08:45:16;15.50;;;3.08;;
73266;SDS011;61495;53.400;7.608;2024-01-27T08:47:42;9.43;;;3.00;;
73266;SDS011;61495;53.400;7.608;2024-01-27T08:50:07;10.45;;;3.10;;
73266;SDS011;61495;53.400;7.608;2024-01-27T08:52:34;15.63;;;3.05;;
73266;SDS011;61495;53.400;7.608;2024-01-27T08:55:00;8.15;;;2.83;;
73266;SDS011;61495;53.400;7.608;2024-01-27T08:57:25;12.27;;;2.90;;
73266;SDS011;61495;53.400;7.608;2024-01-27T08:59:50;11.40;;;2.92;;
73266;SDS011;61495;53.400;7.608;2024-01-27T09:02:16;9.60;;;2.43;;
73266;SDS011;61495;53.400;7.608;2024-01-27T09:04:41;7.95;;;2.15;;
73266;SDS011;61495;53.400;7.608;2024-01-27T09:07:06;6.47;;;2.25;;
73266;SDS011;61495;53.400;7.608;2024-01-27T09:09:33;9.68;;;1.95;;
73266;SDS011;61495;53.400;7.608;2024-01-27T09:11:58;7.63;;;1.90;;
73266;SDS011;61495;53.400;7.608;2024-01-27T09:14:24;7.80;;;1.90;;
73266;SDS011;61495;53.400;7.608;2024-01-27T09:16:49;13.45;;;2.25;;
73266;SDS011;61495;53.400;7.608;2024-01-27T09:19:17;8.85;;;2.60;;
73266;SDS011;61495;53.400;7.608;2024-01-27T09:21:43;12.05;;;2.72;;
73266;SDS011;61495;53.400;7.608;2024-01-27T09:24:08;9.32;;;2.30;;
73266;SDS011;61495;53.400;7.608;2024-01-27T09:26:33;13.45;;;2.42;;
73266;SDS011;61495;53.400;7.608;2024-01-27T09:28:59;9.07;;;2.15;;
73266;SDS011;61495;53.400;7.608;2024-01-27T09:31:25;14.27;;;2.30;;
73266;SDS011;61495;53.400;7.608;2024-01-27T09:33:51;11.35;;;2.38;;
73266;SDS011;61495;53.400;7.608;2024-01-27T09:36:17;12.15;;;2.55;;
73266;SDS011;61495;53.400;7.608;2024-01-27T09:38:43;14.73;;;3.10;;
73266;SDS011;61495;53.400;7.608;2024-01-27T09:41:10;8.07;;;2.17;;
73266;SDS011;61495;53.400;7.608;2024-01-27T09:43:38;9.02;;;2.60;;
73266;SDS011;61495;53.400;7.608;2024-01-27T09:46:09;9.50;;;2.25;;
73266;SDS011;61495;53.400;7.608;2024-01-27T09:48:35;8.88;;;2.45;;
73266;SDS011;61495;53.400;7.608;2024-01-27T09:51:01;10.23;;;2.38;;
73266;SDS011;61495;53.400;7.608;2024-01-27T09:53:28;9.57;;;2.88;;
73266;SDS011;61495;53.400;7.608;2024-01-27T09:55:55;13.73;;;3.22;;
73266;SDS011;61495;53.400;7.608;2024-01-27T09:58:24;13.90;;;4.10;;
73266;SDS011;61495;53.400;7.608;2024-01-27T10:00:59;10.65;;;2.70;;
73266;SDS011;61495;53.400;7.608;2024-01-27T10:03:26;10.55;;;2.53;;
73266;SDS011;61495;53.400;7.608;2024-01-27T10:05:53;14.95;;;3.05;;
73266;SDS011;61495;53.400;7.608;2024-01-27T10:08:21;8.27;;;2.92;;
73266;SDS011;61495;53.400;7.608;2024-01-27T10:10:48;11.00;;;2.78;;
73266;SDS011;61495;53.400;7.608;2024-01-27T10:13:19;16.08;;;3.40;;
73266;SDS011;61495;53.400;7.608;2024-01-27T10:16:04;9.70;;;2.83;;
73266;SDS011;61495;53.400;7.608;2024-01-27T10:18:30;15.38;;;4.00;;
73266;SDS011;61495;53.400;7.608;2024-01-27T10:20:56;10.95;;;2.88;;
73266;SDS011;61495;53.400;7.608;2024-01-27T10:23:22;14.52;;;2.22;;
73266;SDS011;61495;53.400;7.608;2024-01-27T10:25:49;10.32;;;2.90;;
73266;SDS011;61495;53.400;7.608;2024-01-27T10:28:15;11.82;;;3.05;;
73266;SDS011;61495;53.400;7.608;2024-01-27T10:30:41;10.77;;;2.63;;
73266;SDS011;61495;53.400;7.608;2024-01-27T10:33:07;10.13;;;2.63;;
73266;SDS011;61495;53.400;7.608;2024-01-27T10:35:35;13.98;;;3.25;;
73266;SDS011;61495;53.400;7.608;2024-01-27T10:38:01;11.23;;;2.55;;
73266;SDS011;61495;53.400;7.608;2024-01-27T10:40:27;14.50;;;3.63;;
73266;SDS011;61495;53.400;7.608;2024-01-27T10:43:00;17.40;;;3.70;;
73266;SDS011;61495;53.400;7.608;2024-01-27T10:45:29;14.52;;;3.08;;
73266;SDS011;61495;53.400;7.608;2024-01-27T10:50:26;9.63;;;2.95;;
73266;SDS011;61495;53.400;7.608;2024-01-27T10:52:53;12.07;;;3.00;;
73266;SDS011;61495;53.400;7.608;2024-01-27T10:55:22;12.77;;;3.97;;
73266;SDS011;61495;53.400;7.608;2024-01-27T10:57:50;9.60;;;2.88;;
73266;SDS011;61495;53.400;7.608;2024-01-27T11:00:17;14.27;;;3.38;;
73266;SDS011;61495;53.400;7.608;2024-01-27T11:02:43;13.65;;;3.75;;
73266;SDS011;61495;53.400;7.608;2024-01-27T11:05:10;10.60;;;2.95;;
73266;SDS011;61495;53.400;7.608;2024-01-27T11:07:36;19.27;;;4.00;;
73266;SDS011;61495;53.400;7.608;2024-01-27T11:10:04;10.98;;;2.75;;
73266;SDS011;61495;53.400;7.608;2024-01-27T11:12:30;10.82;;;3.40;;
73266;SDS011;61495;53.400;7.608;2024-01-27T11:14:56;10.45;;;2.72;;
73266;SDS011;61495;53.400;7.608;2024-01-27T11:17:23;7.88;;;2.70;;
73266;SDS011;61495;53.400;7.608;2024-01-27T11:19:49;14.43;;;3.20;;
73266;SDS011;61495;53.400;7.608;2024-01-27T11:22:48;10.50;;;3.33;;
73266;SDS011;61495;53.400;7.608;2024-01-27T11:27:37;11.57;;;3.90;;
73266;SDS011;61495;53.400;7.608;2024-01-27T11:30:04;10.98;;;3.10;;
73266;SDS011;61495;53.400;7.608;2024-01-27T11:32:31;7.30;;;2.67;;
73266;SDS011;61495;53.400;7.608;2024-01-27T11:35:00;12.73;;;3.08;;
73266;SDS011;61495;53.400;7.608;2024-01-27T11:37:29;12.75;;;3.40;;
73266;SDS011;61495;53.400;7.608;2024-01-27T11:40:04;8.85;;;3.08;;
73266;SDS011;61495;53.400;7.608;2024-01-27T11:42:31;12.65;;;2.97;;
73266;SDS011;61495;53.400;7.608;2024-01-27T11:44:56;7.65;;;2.88;;
73266;SDS011;61495;53.400;7.608;2024-01-27T11:47:22;12.00;;;3.00;;
73266;SDS011;61495;53.400;7.608;2024-01-27T11:49:50;12.15;;;4.15;;
73266;SDS011;61495;53.400;7.608;2024-01-27T11:52:18;14.70;;;3.97;;
73266;SDS011;61495;53.400;7.608;2024-01-27T11:54:44;11.40;;;3.22;;
73266;SDS011;61495;53.400;7.608;2024-01-27T11:57:09;14.55;;;3.90;;
73266;SDS011;61495;53.400;7.608;2024-01-27T11:59:35;11.10;;;3.35;;
73266;SDS011;61495;53.400;7.608;2024-01-27T12:02:01;14.35;;;3.17;;
73266;SDS011;61495;53.400;7.608;2024-01-27T12:04:29;14.93;;;3.42;;
73266;SDS011;61495;53.400;7.608;2024-01-27T12:06:55;10.77;;;3.28;;
73266;SDS011;61495;53.400;7.608;2024-01-27T12:09:20;10.80;;;2.90;;
73266;SDS011;61495;53.400;7.608;2024-01-27T12:11:47;13.13;;;2.95;;
73266;SDS011;61495;53.400;7.608;2024-01-27T12:14:13;11.48;;;3.08;;
73266;SDS011;61495;53.400;7.608;2024-01-27T12:16:38;8.80;;;3.42;;
73266;SDS011;61495;53.400;7.608;2024-01-27T12:19:04;9.82;;;3.15;;
73266;SDS011;61495;53.400;7.608;2024-01-27T12:21:34;11.05;;;2.90;;
73266;SDS011;61495;53.400;7.608;2024-01-27T12:24:00;10.32;;;3.50;;
73266;SDS011;61495;53.400;7.608;2024-01-27T12:26:26;11.95;;;2.75;;
73266;SDS011;61495;53.400;7.608;2024-01-27T12:28:53;17.33;;;3.17;;
73266;SDS011;61495;53.400;7.608;2024-01-27T12:31:20;9.45;;;2.65;;
73266;SDS011;61495;53.400;7.608;2024-01-27T12:33:48;8.35;;;2.33;;
73266;SDS011;61495;53.400;7.608;2024-01-27T12:36:19;10.68;;;3.92;;
73266;SDS011;61495;53.400;7.608;2024-01-27T12:38:57;11.52;;;3.30;;
73266;SDS011;61495;53.400;7.608;2024-01-27T12:41:27;9.80;;;2.83;;
73266;SDS011;61495;53.400;7.608;2024-01-27T12:43:54;12.52;;;3.28;;
73266;SDS011;61495;53.400;7.608;2024-01-27T12:46:20;10.65;;;3.88;;
73266;SDS011;61495;53.400;7.608;2024-01-27T12:48:46;9.82;;;3.08;;
73266;SDS011;61495;53.400;7.608;2024-01-27T12:51:11;13.48;;;3.45;;
73266;SDS011;61495;53.400;7.608;2024-01-27T12:53:40;11.40;;;2.70;;
73266;SDS011;61495;53.400;7.608;2024-01-27T12:56:09;8.80;;;2.35;;
73266;SDS011;61495;53.400;7.608;2024-01-27T12:58:35;12.07;;;2.97;;
73266;SDS011;61495;53.400;7.608;2024-01-27T13:01:00;12.75;;;3.30;;
73266;SDS011;61495;53.400;7.608;2024-01-27T13:03:26;10.20;;;2.58;;
73266;SDS011;61495;53.400;7.608;2024-01-27T13:05:51;10.77;;;2.65;;
73266;SDS011;61495;53.400;7.608;2024-01-27T13:08:17;6.68;;;3.25;;
73266;SDS011;61495;53.400;7.608;2024-01-27T13:10:42;10.23;;;2.90;;
73266;SDS011;61495;53.400;7.608;2024-01-27T13:13:07;17.13;;;3.65;;
73266;SDS011;61495;53.400;7.608;2024-01-27T13:15:33;10.50;;;2.97;;
73266;SDS011;61495;53.400;7.608;2024-01-27T13:17:58;11.52;;;3.10;;
73266;SDS011;61495;53.400;7.608;2024-01-27T13:20:24;10.20;;;3.30;;
73266;SDS011;61495;53.400;7.608;2024-01-27T13:22:49;9.75;;;3.08;;
73266;SDS011;61495;53.400;7.608;2024-01-27T13:25:16;10.88;;;4.68;;
73266;SDS011;61495;53.400;7.608;2024-01-27T13:27:41;11.52;;;3.38;;
73266;SDS011;61495;53.400;7.608;2024-01-27T13:30:06;13.10;;;3.03;;
73266;SDS011;61495;53.400;7.608;2024-01-27T13:32:34;16.75;;;3.60;;
73266;SDS011;61495;53.400;7.608;2024-01-27T13:34:59;12.23;;;2.53;;
73266;SDS011;61495;53.400;7.608;2024-01-27T13:37:25;11.70;;;3.22;;
73266;SDS011;61495;53.400;7.608;2024-01-27T13:39:51;12.25;;;4.15;;
73266;SDS011;61495;53.400;7.608;2024-01-27T13:42:16;9.80;;;2.97;;
73266;SDS011;61495;53.400;7.608;2024-01-27T13:44:42;11.63;;;2.95;;
73266;SDS011;61495;53.400;7.608;2024-01-27T13:47:08;9.38;;;2.60;;
73266;SDS011;61495;53.400;7.608;2024-01-27T13:49:34;11.30;;;2.63;;
73266;SDS011;61495;53.400;7.608;2024-01-27T13:52:03;7.47;;;2.75;;
73266;SDS011;61495;53.400;7.608;2024-01-27T13:54:28;10.57;;;2.90;;
73266;SDS011;61495;53.400;7.608;2024-01-27T13:56:54;9.20;;;3.10;;
73266;SDS011;61495;53.400;7.608;2024-01-27T13:59:20;12.98;;;3.30;;
73266;SDS011;61495;53.400;7.608;2024-01-27T14:01:46;10.15;;;3.13;;
73266;SDS011;61495;53.400;7.608;2024-01-27T14:04:12;16.40;;;3.28;;
73266;SDS011;61495;53.400;7.608;2024-01-27T14:06:37;9.30;;;2.70;;
73266;SDS011;61495;53.400;7.608;2024-01-27T14:09:03;10.23;;;2.63;;
73266;SDS011;61495;53.400;7.608;2024-01-27T14:11:28;7.45;;;2.55;;
73266;SDS011;61495;53.400;7.608;2024-01-27T14:13:54;14.23;;;2.95;;
73266;SDS011;61495;53.400;7.608;2024-01-27T14:16:19;7.22;;;2.03;;
73266;SDS011;61495;53.400;7.608;2024-01-27T14:18:45;9.57;;;2.63;;
73266;SDS011;61495;53.400;7.608;2024-01-27T14:21:10;12.02;;;2.40;;
73266;SDS011;61495;53.400;7.608;2024-01-27T14:23:36;9.07;;;2.17;;
73266;SDS011;61495;53.400;7.608;2024-01-27T14:26:02;10.75;;;2.88;;
73266;SDS011;61495;53.400;7.608;2024-01-27T14:28:28;9.40;;;3.10;;
73266;SDS011;61495;53.400;7.608;2024-01-27T14:30:53;10.40;;;2.88;;
73266;SDS011;61495;53.400;7.608;2024-01-27T14:33:19;10.02;;;2.50;;
73266;SDS011;61495;53.400;7.608;2024-01-27T14:35:46;11.60;;;3.05;;
73266;SDS011;61495;53.400;7.608;2024-01-27T14:38:12;10.05;;;2.70;;
73266;SDS011;61495;53.400;7.608;2024-01-27T14:40:38;8.73;;;2.55;;